Nur fliegen ist schöner ....

Willkommen beim Flugservice Bautzen GmbH

Wir sind eine nach europäischen Richtlinien zugelassene Flugschule und lizenziertes Luftfahrtunternehmen. Bei uns können sie nicht nur Rundflüge über die Oberlausitz oder Sachsen buchen, sondern in unserer Flugschule selber das Fliegen erlernen. Erfahrene Fluglehrer stehen Ihnen dabei zur Seite.

Wir bieten Ihnen außerdem spezielle Flüge zur Vermessung oder Fotoflüge für Luftbildaufnahmen an. In Zusammenarbeit mit dem Fallschirmsportclub Dresden und dem Cottbuser Fallschirmsportclub setzen wir am Flugplatz Bautzen und Neuhausen Fallschirmspringer ab.
Schauen Sie sich in Ruhe bei uns um und wenn Sie Fragen haben oder weitere Informationen benötigen, scheuen Sie sich nicht Kontakt mit uns aufzunehmen.

Gutscheine für Rundflüge und Tandemsprünge können Sie ganz leicht auch online in unserem Shop erwerben.

Terminkalender

Letzter Monat Juni 2019 Nächster Monat
Mo Di Mi Do Fr Sa So
week 22 1 2
week 23 3 4 5 6 7 8 9
week 24 10 11 12 13 14 15 16
week 25 17 18 19 20 21 22 23
week 26 24 25 26 27 28 29 30

Flugwetterinfo

[Quelle: ADDS]
METAR
EDDC 190050Z 14005KT CAVOK 19/13 Q1013 =
EDDC 182300Z 1900/1924 15004KT CAVOK BECMG 1906/1908 18010KT PROB30 TEMPO 1910/1918 19020G45KT -TSRA SCT060CB BECMG 1916/1919 19004KT
TAF
EDDC 182300Z 1900/1924 15004KT CAVOK BECMG 1906/1908 18010KT PROB30 TEMPO 1910/1918 19020G45KT -TSRA SCT060CB BECMG 1916/1919 19004KT =
SR / SS: 02:45 / 19:20 UTC (EDAB Flugplatz Bautzen 2019-06-19)

Öffnungszeiten

des Flugplatzes Bautzen erfahren Sie hier:

flugplatz bautzen logo
Flugservice Bautzen GmbH, Kornmarkt 34, 02625 Bautzen  Telefon: +49 (3591) 211105, Telefax: +49 (3591) 274512, E-Mail:  flugservice(at)fsbautzen.de